Main page
METAR-TAF:

METAR-TAF

Airports :

Cranwell, England

RAF Cranwell

latitude: 53-02N, longitude: 000-30W, elevation: 67 m

Current weather observation

The report was made 34 minutes ago, at 22:50 UTC
Wind 8 kt from the South/Southwest
Temperature 15°C
Humidity 82%
Pressure 1009 hPa
Visibility 10 km or more

METAR: EGYD 172250Z AUTO 20008KT 9999 // NCD 15/12 Q1009

Time: 00:24 (23:24 UTC)

Forecast

The report was made 9 hours and 37 minutes ago, at 13:47 UTC
Forecast valid from 17 at 15 UTC to 17 at 19 UTC
Wind 14 kt from the West/Southwest
Visibility 10 km or more
Scattered clouds at a height of 4000 ft
Probability 30% :
Temporary
from 17 at 15 UTC to 17 at 18 UTC
Wind 16 kt from the West/Southwest with gusts up to 26 kt

TAF: EGYD 171347Z 1715/1719 25014KT 9999 SCT040 PROB30 TEMPO 1715/1718 25016G26KT

Weather observations and forecasts of more than 4000 airports (METAR and TAF reports).

The available stations are represented by yellow and red dots on the map.

Hover mouse over dot to see the name of the station.

Then click to see weather observations and forecasts.

To change the map : click on the green buttons with a black cross to zoom in, on the green button with a dash to zoom out, or on the green arrows for adjacent maps.


METAR-TAF: